Time;durP1;ratioP1;P1;durP2;ratioP2;P2;SDS_P1;SDS_P2;PMS_P1;PMS_P2;Temp;Humidity;BMP_temperature;BMP_pressure;BME280_temperature;BME280_humidity;BME280_pressure;Samples;Min_cycle;Max_cycle;Signal;HPM_P1;HPM_P2
2024/01/14 00:00:37;;;;;;;16.67;6.63;;;-3.00;99.90;;;;;;5050726;28;20197;-76
2024/01/14 00:03:04;;;;;;;15.32;6.22;;;-2.90;99.90;;;;;;5052569;28;20717;-76
2024/01/14 00:05:31;;;;;;;8.73;5.63;;;-3.00;99.90;;;;;;5053863;28;20221;-76
2024/01/14 00:07:58;;;;;;;14.80;7.25;;;-3.00;99.90;;;;;;5053246;28;20208;-76
2024/01/14 00:10:24;;;;;;;27.52;8.75;;;-2.90;99.90;;;;;;5053370;28;20217;-76
2024/01/14 00:12:51;;;;;;;20.55;8.25;;;-2.90;99.90;;;;;;5052323;28;20229;-76
2024/01/14 00:15:19;;;;;;;13.23;5.78;;;-2.90;99.90;;;;;;5052888;28;20330;-76
2024/01/14 00:17:46;;;;;;;10.95;6.93;;;-3.00;99.90;;;;;;5052634;28;20243;-76
2024/01/14 00:20:13;;;;;;;12.90;7.75;;;-3.00;99.90;;;;;;5052985;28;20228;-76
2024/01/14 00:22:40;;;;;;;14.27;6.60;;;-3.00;99.90;;;;;;5052480;28;20823;-77
2024/01/14 00:25:08;;;;;;;9.65;6.32;;;-3.00;99.90;;;;;;5053210;28;20209;-77
2024/01/14 00:27:34;;;;;;;11.45;7.30;;;-3.00;99.90;;;;;;5052187;28;20209;-77
2024/01/14 00:30:01;;;;;;;5.50;4.80;;;-3.00;99.90;;;;;;5057132;28;20608;-76
2024/01/14 00:32:29;;;;;;;10.60;6.07;;;-3.00;99.90;;;;;;5055821;28;20253;-77
2024/01/14 00:34:56;;;;;;;13.82;6.63;;;-3.00;99.90;;;;;;5053191;28;20216;-76
2024/01/14 00:37:24;;;;;;;8.75;5.93;;;-3.00;99.90;;;;;;5051840;28;20266;-76
2024/01/14 00:39:51;;;;;;;10.95;7.00;;;-3.00;99.90;;;;;;5052720;28;20206;-75
2024/01/14 00:42:18;;;;;;;16.73;5.53;;;-3.00;99.90;;;;;;5052088;28;20221;-76
2024/01/14 00:44:44;;;;;;;20.73;7.70;;;-3.00;99.90;;;;;;5053054;28;20205;-76
2024/01/14 00:47:11;;;;;;;10.50;7.22;;;-3.00;99.90;;;;;;5052034;28;20201;-76
2024/01/14 00:49:39;;;;;;;8.13;5.13;;;-3.00;99.90;;;;;;5052618;28;20252;-75
2024/01/14 00:52:06;;;;;;;21.15;8.13;;;-3.00;99.90;;;;;;5051649;28;20233;-75
2024/01/14 00:54:33;;;;;;;13.07;7.75;;;-3.00;99.90;;;;;;5048829;28;20296;-75
2024/01/14 00:57:00;;;;;;;12.25;7.32;;;-2.90;99.90;;;;;;5047680;28;20613;-75
2024/01/14 00:59:26;;;;;;;15.48;7.13;;;-3.00;99.90;;;;;;5052093;28;20574;-76
2024/01/14 01:01:53;;;;;;;15.25;8.82;;;-3.00;99.90;;;;;;5052245;28;20232;-76
2024/01/14 01:04:20;;;;;;;15.20;6.28;;;-3.00;99.90;;;;;;5051815;28;20213;-76
2024/01/14 01:06:48;;;;;;;20.92;8.23;;;-3.00;99.90;;;;;;5051737;28;20209;-75
2024/01/14 01:09:14;;;;;;;18.25;7.15;;;-3.10;99.90;;;;;;5052231;28;20205;-75
2024/01/14 01:11:41;;;;;;;10.20;5.63;;;-3.10;99.90;;;;;;5051260;28;20232;-76
2024/01/14 01:14:08;;;;;;;17.17;6.55;;;-3.10;99.90;;;;;;5051555;28;20577;-76
2024/01/14 01:16:34;;;;;;;11.30;6.82;;;-3.00;99.90;;;;;;5050858;28;20209;-76
2024/01/14 01:19:01;;;;;;;12.10;8.00;;;-3.00;99.90;;;;;;5050411;28;20201;-76
2024/01/14 01:21:28;;;;;;;10.75;6.53;;;-3.00;99.90;;;;;;5050466;28;20227;-76
2024/01/14 01:23:56;;;;;;;8.85;5.15;;;-3.00;99.90;;;;;;5050479;28;20205;-76
2024/01/14 01:26:23;;;;;;;15.52;6.60;;;-3.10;99.90;;;;;;5050324;28;20212;-76
2024/01/14 01:28:49;;;;;;;21.58;9.00;;;-3.10;99.90;;;;;;5050222;28;20209;-75
2024/01/14 01:31:16;;;;;;;14.60;8.30;;;-3.00;99.90;;;;;;5050081;28;20228;-75
2024/01/14 01:33:44;;;;;;;8.73;5.97;;;-3.00;99.90;;;;;;5051344;28;20201;-75
2024/01/14 01:36:12;;;;;;;9.20;7.00;;;-3.00;99.90;;;;;;5052344;28;20205;-75
2024/01/14 01:38:38;;;;;;;11.43;5.57;;;-3.10;99.90;;;;;;5051826;28;20205;-75
2024/01/14 01:41:06;;;;;;;15.75;7.32;;;-3.20;99.90;;;;;;5052006;28;20197;-76
2024/01/14 01:43:33;;;;;;;8.13;4.88;;;-3.20;99.90;;;;;;5051512;28;20709;-75
2024/01/14 01:46:00;;;;;;;7.57;5.80;;;-3.30;99.90;;;;;;5046724;28;20205;-75
2024/01/14 01:48:27;;;;;;;18.33;5.50;;;-3.30;99.90;;;;;;5051631;28;20204;-75
2024/01/14 01:50:56;;;;;;;12.80;5.85;;;-3.30;99.90;;;;;;5051681;28;20918;-75
2024/01/14 01:53:24;;;;;;;15.93;6.75;;;-3.30;99.90;;;;;;5051512;28;20224;-76
2024/01/14 01:55:52;;;;;;;8.23;5.85;;;-3.30;99.90;;;;;;5051732;28;20208;-76
2024/01/14 01:58:20;;;;;;;9.43;5.22;;;-3.40;99.90;;;;;;5051744;28;20213;-76
2024/01/14 02:00:49;;;;;;;13.07;6.47;;;-3.30;99.90;;;;;;5051872;28;20200;-76
2024/01/14 02:03:16;;;;;;;13.55;5.95;;;-3.40;99.90;;;;;;5051106;28;20225;-75
2024/01/14 02:05:44;;;;;;;7.80;5.47;;;-3.50;99.90;;;;;;5051539;28;20670;-76
2024/01/14 02:08:12;;;;;;;13.80;5.43;;;-3.50;99.90;;;;;;5051620;28;20216;-75
2024/01/14 02:10:38;;;;;;;16.35;7.22;;;-3.60;99.90;;;;;;5051156;28;20224;-76
2024/01/14 02:13:05;;;;;;;11.35;5.47;;;-3.60;99.90;;;;;;5051350;28;20253;-75
2024/01/14 02:15:33;;;;;;;7.95;5.75;;;-3.60;99.90;;;;;;5051400;28;20266;-76
2024/01/14 02:18:00;;;;;;;15.70;6.88;;;-3.60;99.90;;;;;;5046038;28;20205;-76
2024/01/14 02:20:27;;;;;;;8.75;5.65;;;-3.60;99.90;;;;;;5050990;28;20193;-75
2024/01/14 02:22:56;;;;;;;15.07;7.50;;;-3.70;99.90;;;;;;5050949;28;20316;-76
2024/01/14 02:25:24;;;;;;;13.40;7.40;;;-3.80;99.90;;;;;;5050997;28;20589;-76
2024/01/14 02:27:51;;;;;;;20.13;5.82;;;-3.80;99.90;;;;;;5051253;28;20212;-76
2024/01/14 02:30:19;;;;;;;7.97;5.13;;;-3.80;99.90;;;;;;5050725;28;20225;-75
2024/01/14 02:32:48;;;;;;;8.27;4.18;;;-3.70;99.90;;;;;;5050876;28;20253;-76
2024/01/14 02:35:15;;;;;;;13.35;7.03;;;-3.70;99.90;;;;;;5053549;28;20208;-76
2024/01/14 02:37:43;;;;;;;6.18;5.45;;;-3.70;99.90;;;;;;5050746;28;20454;-76
2024/01/14 02:40:10;;;;;;;11.05;6.60;;;-3.70;99.90;;;;;;5051036;28;20207;-75
2024/01/14 02:42:39;;;;;;;23.48;7.35;;;-3.70;99.90;;;;;;5050282;28;20682;-76
2024/01/14 02:45:07;;;;;;;15.13;5.03;;;-3.70;99.90;;;;;;5051266;28;20209;-76
2024/01/14 02:47:33;;;;;;;18.35;6.03;;;-3.70;99.90;;;;;;5050920;28;20579;-76
2024/01/14 02:50:00;;;;;;;7.00;4.13;;;-3.60;99.90;;;;;;5044710;28;20861;-76
2024/01/14 02:52:27;;;;;;;8.18;6.30;;;-3.60;99.90;;;;;;5050075;28;20231;-75
2024/01/14 02:54:53;;;;;;;11.90;6.07;;;-3.60;99.90;;;;;;5050957;28;21525;-75
2024/01/14 02:57:20;;;;;;;12.35;7.57;;;-3.60;99.90;;;;;;5050564;28;20204;-75
2024/01/14 02:59:48;;;;;;;13.13;6.63;;;-3.60;99.90;;;;;;5050432;28;20404;-76
2024/01/14 03:02:15;;;;;;;12.90;6.75;;;-3.50;99.90;;;;;;5050796;28;20224;-75
2024/01/14 03:04:42;;;;;;;6.82;5.50;;;-3.50;99.90;;;;;;5049972;28;20201;-75
2024/01/14 03:07:08;;;;;;;11.70;7.10;;;-3.50;99.90;;;;;;5050770;28;20213;-76
2024/01/14 03:09:35;;;;;;;15.25;7.50;;;-3.40;99.90;;;;;;5050198;28;20205;-76
2024/01/14 03:12:02;;;;;;;9.68;6.13;;;-3.40;99.90;;;;;;5050619;28;20231;-75
2024/01/14 03:14:29;;;;;;;14.50;7.65;;;-3.30;99.90;;;;;;5050010;28;20205;-76
2024/01/14 03:16:59;;;;;;;10.00;5.68;;;-3.30;99.90;;;;;;5050721;28;20235;-75
2024/01/14 03:19:26;;;;;;;9.70;5.80;;;-3.20;99.90;;;;;;5050312;28;20201;-75
2024/01/14 03:21:53;;;;;;;6.70;5.57;;;-3.20;99.90;;;;;;5050500;28;20358;-75
2024/01/14 03:24:20;;;;;;;10.18;7.60;;;-3.20;99.90;;;;;;5050382;28;20620;-75
2024/01/14 03:26:47;;;;;;;10.10;5.68;;;-3.20;99.90;;;;;;5050405;28;20212;-75
2024/01/14 03:29:13;;;;;;;14.02;8.48;;;-3.10;99.90;;;;;;5050302;28;20218;-75
2024/01/14 03:31:40;;;;;;;11.88;9.07;;;-3.10;99.90;;;;;;5050025;28;20225;-76
2024/01/14 03:34:08;;;;;;;13.23;7.13;;;-3.20;99.90;;;;;;5050441;28;20574;-75
2024/01/14 03:36:35;;;;;;;12.43;6.50;;;-3.10;99.90;;;;;;5052436;28;20659;-75
2024/01/14 03:39:03;;;;;;;19.13;7.15;;;-3.10;99.90;;;;;;5054401;28;20205;-75
2024/01/14 03:41:30;;;;;;;11.77;7.07;;;-3.20;99.90;;;;;;5054105;28;20722;-76
2024/01/14 03:43:57;;;;;;;11.40;6.57;;;-3.20;99.90;;;;;;5054040;28;20396;-75
2024/01/14 03:46:24;;;;;;;17.35;8.93;;;-3.10;99.90;;;;;;5054264;28;20255;-75
2024/01/14 03:48:50;;;;;;;12.32;6.05;;;-3.10;99.90;;;;;;5052755;28;20201;-76
2024/01/14 03:51:19;;;;;;;14.20;7.55;;;-3.10;99.90;;;;;;5054052;28;20785;-76
2024/01/14 03:53:45;;;;;;;15.68;6.88;;;-3.20;99.90;;;;;;5053815;28;20205;-76
2024/01/14 03:56:12;;;;;;;18.20;7.50;;;-3.20;99.90;;;;;;5054298;28;20197;-76
2024/01/14 03:58:39;;;;;;;10.77;5.78;;;-3.20;99.90;;;;;;5053608;28;20217;-76
2024/01/14 04:01:06;;;;;;;19.42;6.57;;;-3.20;99.90;;;;;;5053993;28;20201;-76
2024/01/14 04:03:33;;;;;;;11.13;5.63;;;-3.20;99.90;;;;;;5053412;28;20251;-76
2024/01/14 04:06:04;;;;;;;9.93;6.13;;;-3.20;99.90;;;;;;5047031;28;20201;-76
2024/01/14 04:08:32;;;;;;;13.35;6.70;;;-3.30;99.90;;;;;;5053834;28;20209;-76
2024/01/14 04:10:59;;;;;;;11.20;5.13;;;-3.30;99.90;;;;;;5046764;28;20217;-75
2024/01/14 04:13:26;;;;;;;18.88;7.35;;;-3.30;99.90;;;;;;5053448;28;20575;-76
2024/01/14 04:15:52;;;;;;;8.50;4.95;;;-3.30;99.90;;;;;;5054922;28;20689;-76
2024/01/14 04:18:19;;;;;;;10.50;6.28;;;-3.30;99.90;;;;;;5053944;28;20208;-76
2024/01/14 04:20:46;;;;;;;12.45;6.93;;;-3.30;99.90;;;;;;5053831;28;20201;-76
2024/01/14 04:23:12;;;;;;;18.55;8.07;;;-3.30;99.90;;;;;;5053394;28;20244;-76
2024/01/14 04:25:40;;;;;;;8.18;5.20;;;-3.30;99.90;;;;;;5053402;28;20209;-76
2024/01/14 04:28:07;;;;;;;11.13;6.20;;;-3.40;99.90;;;;;;5053626;28;20201;-76
2024/01/14 04:30:34;;;;;;;12.60;6.65;;;-3.40;99.90;;;;;;5053191;28;20209;-76
2024/01/14 04:33:01;;;;;;;12.15;6.07;;;-3.40;99.90;;;;;;5045921;28;20217;-76
2024/01/14 04:35:27;;;;;;;11.10;5.47;;;-3.50;99.90;;;;;;5053430;28;20693;-76
2024/01/14 04:37:54;;;;;;;15.25;7.28;;;-3.50;99.90;;;;;;5053249;28;20209;-75
2024/01/14 04:40:21;;;;;;;10.82;5.10;;;-3.50;99.90;;;;;;5053235;28;20205;-76
2024/01/14 04:42:49;;;;;;;6.53;4.25;;;-3.50;99.90;;;;;;5052411;28;20220;-76
2024/01/14 04:45:16;;;;;;;10.38;4.72;;;-3.60;99.90;;;;;;5053306;28;20201;-76
2024/01/14 04:47:42;;;;;;;17.80;6.68;;;-3.60;99.90;;;;;;5052699;28;20213;-76
2024/01/14 04:50:10;;;;;;;8.60;5.57;;;-3.60;99.90;;;;;;5052989;28;20208;-76
2024/01/14 04:52:36;;;;;;;9.13;6.13;;;-3.70;99.90;;;;;;5052474;28;20221;-76
2024/01/14 04:55:04;;;;;;;11.63;7.75;;;-3.70;99.90;;;;;;5053102;28;20201;-76
2024/01/14 04:57:31;;;;;;;7.70;4.60;;;-3.60;99.90;;;;;;5053105;28;20300;-75
2024/01/14 04:59:59;;;;;;;10.43;4.90;;;-3.60;99.90;;;;;;5052652;28;20204;-76
2024/01/14 05:02:26;;;;;;;12.68;5.13;;;-3.70;99.90;;;;;;5052692;28;20597;-76
2024/01/14 05:04:53;;;;;;;8.40;3.80;;;-3.70;99.90;;;;;;5052716;28;20546;-75
2024/01/14 05:07:20;;;;;;;14.65;7.03;;;-3.70;99.90;;;;;;5053051;28;20209;-75
2024/01/14 05:09:47;;;;;;;12.70;6.93;;;-3.70;99.90;;;;;;5052253;28;20561;-75
2024/01/14 05:12:13;;;;;;;13.32;7.47;;;-3.70;99.90;;;;;;5052575;28;20221;-75
2024/01/14 05:14:40;;;;;;;9.75;6.55;;;-3.70;99.90;;;;;;5051889;28;20232;-75
2024/01/14 05:17:08;;;;;;;15.38;6.03;;;-3.80;99.90;;;;;;5052828;28;20578;-75
2024/01/14 05:19:35;;;;;;;11.88;5.82;;;-3.70;99.90;;;;;;5052301;28;20205;-76
2024/01/14 05:22:01;;;;;;;9.20;5.85;;;-3.70;99.90;;;;;;5052428;28;20718;-76
2024/01/14 05:24:28;;;;;;;41.55;6.85;;;-3.70;99.90;;;;;;5052263;28;20208;-76
2024/01/14 05:26:55;;;;;;;17.95;7.20;;;-3.80;99.90;;;;;;5052108;28;20300;-76
2024/01/14 05:29:21;;;;;;;10.88;5.80;;;-3.80;99.90;;;;;;5052400;28;20224;-76
2024/01/14 05:31:48;;;;;;;7.40;5.85;;;-3.80;99.90;;;;;;5051881;28;20232;-76
2024/01/14 05:34:16;;;;;;;20.55;5.70;;;-3.80;99.90;;;;;;5052150;28;20584;-76
2024/01/14 05:36:43;;;;;;;6.78;5.07;;;-3.80;99.90;;;;;;5052007;28;20216;-76
2024/01/14 05:39:10;;;;;;;14.25;5.10;;;-3.90;99.90;;;;;;5052081;28;20233;-76
2024/01/14 05:41:37;;;;;;;11.63;5.57;;;-3.90;99.90;;;;;;5051794;28;20271;-76
2024/01/14 05:44:04;;;;;;;10.23;5.72;;;-3.90;99.90;;;;;;5051728;28;20252;-76
2024/01/14 05:46:31;;;;;;;4.45;4.15;;;-3.90;99.90;;;;;;5052154;28;20682;-76
2024/01/14 05:48:57;;;;;;;7.50;5.95;;;-4.00;99.90;;;;;;5051434;28;20198;-76
2024/01/14 05:51:25;;;;;;;7.30;4.85;;;-4.00;99.90;;;;;;5052370;28;20346;-76
2024/01/14 05:53:52;;;;;;;7.20;4.43;;;-4.00;99.90;;;;;;5051505;28;20706;-76
2024/01/14 05:56:26;;;;;;;9.27;6.68;;;-4.00;99.90;;;;;;5052125;28;20208;-76
2024/01/14 05:58:53;;;;;;;8.57;6.13;;;-4.00;99.90;;;;;;5050622;28;20205;-76
2024/01/14 06:01:19;;;;;;;10.50;4.90;;;-4.00;99.90;;;;;;5051844;28;20225;-76
2024/01/14 06:03:46;;;;;;;6.15;4.25;;;-4.00;99.90;;;;;;5051197;28;20212;-76
2024/01/14 06:06:13;;;;;;;16.35;6.70;;;-4.00;99.90;;;;;;5051984;28;20201;-75
2024/01/14 06:08:41;;;;;;;7.70;5.35;;;-4.00;99.90;;;;;;5051302;28;20209;-76
2024/01/14 06:11:08;;;;;;;10.32;6.93;;;-4.00;99.90;;;;;;5053011;28;20227;-77
2024/01/14 06:13:35;;;;;;;9.80;5.25;;;-4.00;99.90;;;;;;5052047;28;20201;-77
2024/01/14 06:16:02;;;;;;;6.07;3.53;;;-4.00;99.90;;;;;;5052410;28;20205;-76
2024/01/14 06:18:29;;;;;;;8.13;5.47;;;-4.00;99.90;;;;;;5054424;28;20208;-76
2024/01/14 06:20:59;;;;;;;6.72;4.80;;;-4.00;99.90;;;;;;5053926;28;20213;-76
2024/01/14 06:23:26;;;;;;;10.25;4.63;;;-4.10;99.90;;;;;;5054703;28;20221;-76
2024/01/14 06:25:54;;;;;;;13.32;7.68;;;-4.20;99.90;;;;;;5053653;28;20216;-77
2024/01/14 06:28:21;;;;;;;7.63;2.95;;;-4.50;99.90;;;;;;5052622;28;20203;-77
2024/01/14 06:30:48;;;;;;;18.75;4.93;;;-4.50;99.90;;;;;;5051254;28;20205;-77
2024/01/14 06:33:14;;;;;;;5.18;4.20;;;-4.60;99.90;;;;;;5051890;28;20232;-77
2024/01/14 06:35:41;;;;;;;17.00;7.15;;;-4.60;99.90;;;;;;5051561;28;20207;-76
2024/01/14 06:38:09;;;;;;;9.70;5.05;;;-4.60;99.90;;;;;;5051465;28;20209;-76
2024/01/14 06:40:36;;;;;;;14.70;8.77;;;-4.60;99.90;;;;;;5051431;28;20259;-77
2024/01/14 06:43:04;;;;;;;17.95;5.38;;;-4.70;99.90;;;;;;5051009;28;20555;-77
2024/01/14 06:45:31;;;;;;;9.43;5.63;;;-4.70;99.90;;;;;;5051884;28;20213;-77
2024/01/14 06:47:57;;;;;;;15.30;6.55;;;-4.70;99.90;;;;;;5051056;28;20205;-77
2024/01/14 06:50:24;;;;;;;11.10;5.47;;;-4.70;99.90;;;;;;5051489;28;20212;-76
2024/01/14 06:52:51;;;;;;;5.93;4.55;;;-4.70;99.90;;;;;;5050359;28;20244;-76
2024/01/14 06:55:18;;;;;;;8.55;5.20;;;-4.70;99.90;;;;;;5051188;28;20207;-76
2024/01/14 06:57:44;;;;;;;7.63;3.42;;;-4.70;99.90;;;;;;5050576;28;20205;-76
2024/01/14 07:00:14;;;;;;;11.55;5.88;;;-4.40;99.90;;;;;;5050958;28;20216;-76
2024/01/14 07:02:40;;;;;;;15.60;6.20;;;-4.20;99.90;;;;;;5050730;28;20225;-77
2024/01/14 07:05:10;;;;;;;12.43;7.75;;;-4.10;99.90;;;;;;5051159;28;20201;-76
2024/01/14 07:07:37;;;;;;;5.53;4.55;;;-4.00;99.90;;;;;;5051100;28;20670;-76
2024/01/14 07:10:04;;;;;;;9.63;4.35;;;-4.10;99.90;;;;;;5050730;28;20571;-76
2024/01/14 07:12:31;;;;;;;5.72;3.97;;;-4.20;99.90;;;;;;5054687;28;20225;-76
2024/01/14 07:14:57;;;;;;;8.40;5.88;;;-4.30;99.90;;;;;;5055013;28;20211;-76
2024/01/14 07:17:25;;;;;;;3.83;3.42;;;-4.40;99.90;;;;;;5055151;28;20204;-77
2024/01/14 07:19:52;;;;;;;4.38;3.63;;;-4.40;99.90;;;;;;5054571;28;20205;-77
2024/01/14 07:22:19;;;;;;;8.85;4.82;;;-4.50;99.90;;;;;;5054959;28;20217;-76
2024/01/14 07:24:45;;;;;;;4.45;3.95;;;-4.40;99.90;;;;;;5053997;28;20581;-76
2024/01/14 07:27:12;;;;;;;7.85;4.45;;;-4.40;99.90;;;;;;5055202;28;20201;-77
2024/01/14 07:29:39;;;;;;;14.20;6.93;;;-4.50;99.90;;;;;;5055229;28;20750;-77
2024/01/14 07:32:07;;;;;;;8.35;4.13;;;-4.50;99.90;;;;;;5054854;28;20686;-77
2024/01/14 07:34:38;;;;;;;3.40;3.15;;;-4.70;99.90;;;;;;5054837;28;20592;-77
2024/01/14 07:37:05;;;;;;;10.07;6.70;;;-4.70;99.90;;;;;;5053960;28;20215;-77
2024/01/14 07:39:32;;;;;;;6.35;4.47;;;-4.80;99.90;;;;;;5054723;28;20698;-77
2024/01/14 07:41:59;;;;;;;6.97;4.97;;;-4.80;99.90;;;;;;5054809;28;20225;-77
2024/01/14 07:44:25;;;;;;;3.60;3.25;;;-4.80;99.90;;;;;;5054198;28;20291;-75
2024/01/14 07:46:54;;;;;;;11.50;7.85;;;-4.80;99.90;;;;;;5060334;28;20584;-76
2024/01/14 07:49:20;;;;;;;3.92;3.55;;;-4.80;99.90;;;;;;5054233;28;20205;-76
2024/01/14 07:51:49;;;;;;;7.60;3.95;;;-4.70;99.90;;;;;;5054076;28;20239;-76
2024/01/14 07:54:15;;;;;;;3.42;3.13;;;-4.70;99.90;;;;;;5053884;28;20701;-76
2024/01/14 07:56:42;;;;;;;7.75;3.92;;;-4.60;99.90;;;;;;5054349;28;20205;-76
2024/01/14 07:59:10;;;;;;;5.75;4.00;;;-4.50;99.90;;;;;;5053693;28;20596;-76
2024/01/14 08:01:37;;;;;;;5.72;2.95;;;-4.60;99.90;;;;;;5054057;28;20225;-76
2024/01/14 08:04:04;;;;;;;5.20;4.03;;;-4.50;99.90;;;;;;5053596;28;20677;-76
2024/01/14 08:06:31;;;;;;;9.68;4.13;;;-4.50;99.90;;;;;;5054084;28;20652;-76
2024/01/14 08:08:59;;;;;;;5.88;3.67;;;-4.50;99.90;;;;;;5053456;28;20209;-76
2024/01/14 08:11:26;;;;;;;9.07;3.00;;;-4.40;99.90;;;;;;5054104;28;20225;-76
2024/01/14 08:13:52;;;;;;;11.55;6.15;;;-4.40;99.90;;;;;;5053218;28;20606;-75
2024/01/14 08:16:19;;;;;;;6.60;5.32;;;-4.40;99.90;;;;;;5053946;28;20208;-76
2024/01/14 08:18:46;;;;;;;5.88;3.25;;;-4.40;99.90;;;;;;5053679;28;20205;-75
2024/01/14 08:21:12;;;;;;;8.68;6.15;;;-4.40;99.90;;;;;;5052775;28;20205;-75
2024/01/14 08:23:39;;;;;;;14.52;5.15;;;-4.40;99.90;;;;;;5053244;28;20209;-75
2024/01/14 08:26:07;;;;;;;5.95;3.00;;;-4.40;99.90;;;;;;5053223;28;20702;-75
2024/01/14 08:28:36;;;;;;;9.38;4.60;;;-4.50;99.90;;;;;;5053684;28;20209;-75
2024/01/14 08:31:03;;;;;;;12.77;7.80;;;-4.60;99.90;;;;;;5051200;28;20205;-76
2024/01/14 08:33:29;;;;;;;16.38;7.55;;;-4.60;99.90;;;;;;5052954;28;20220;-76
2024/01/14 08:35:57;;;;;;;12.80;5.45;;;-4.60;99.90;;;;;;5052804;28;20343;-75
2024/01/14 08:38:24;;;;;;;6.45;5.85;;;-4.50;99.90;;;;;;5046219;28;20658;-76
2024/01/14 08:40:52;;;;;;;9.63;6.05;;;-4.40;99.90;;;;;;5052923;28;20560;-76
2024/01/14 08:43:20;;;;;;;16.15;5.22;;;-4.40;99.90;;;;;;5051509;28;20578;-76
2024/01/14 08:45:46;;;;;;;8.30;4.35;;;-4.30;99.90;;;;;;5047006;28;20206;-76
2024/01/14 08:48:13;;;;;;;13.95;5.53;;;-4.30;99.90;;;;;;5045728;28;20211;-76
2024/01/14 08:50:40;;;;;;;9.48;6.65;;;-4.40;99.90;;;;;;5044345;28;20579;-76
2024/01/14 08:53:07;;;;;;;5.85;5.43;;;-4.30;99.90;;;;;;5045398;28;20300;-76
2024/01/14 08:55:33;;;;;;;7.32;5.65;;;-4.20;99.90;;;;;;5044288;28;20197;-76
2024/01/14 08:58:01;;;;;;;7.78;5.07;;;-4.10;99.90;;;;;;5043316;28;20202;-76
2024/01/14 09:00:29;;;;;;;7.70;5.50;;;-4.00;99.90;;;;;;5044733;28;20299;-76
2024/01/14 09:02:55;;;;;;;3.63;3.25;;;-4.10;99.90;;;;;;5044850;28;20225;-75
2024/01/14 09:05:23;;;;;;;16.17;6.93;;;-4.00;99.90;;;;;;5044790;28;20205;-76
2024/01/14 09:07:49;;;;;;;10.43;7.22;;;-4.00;99.90;;;;;;5047675;28;20202;-76
2024/01/14 09:10:16;;;;;;;6.47;4.78;;;-4.00;99.90;;;;;;5052003;28;20697;-76
2024/01/14 09:12:43;;;;;;;5.88;5.35;;;-3.90;99.90;;;;;;5051823;28;20229;-76
2024/01/14 09:15:09;;;;;;;11.25;5.95;;;-3.90;99.90;;;;;;5047347;28;20205;-76
2024/01/14 09:17:38;;;;;;;11.82;4.75;;;-4.00;99.90;;;;;;5051571;28;20212;-77
2024/01/14 09:20:06;;;;;;;22.48;7.32;;;-4.20;99.90;;;;;;5048500;28;20231;-77
2024/01/14 09:22:33;;;;;;;6.25;4.28;;;-4.00;99.90;;;;;;5051901;28;20313;-77
2024/01/14 09:25:00;;;;;;;16.02;7.30;;;-4.00;99.90;;;;;;5052676;28;20698;-76
2024/01/14 09:27:30;;;;;;;6.53;5.00;;;-3.80;99.90;;;;;;5052080;28;20221;-77
2024/01/14 09:29:57;;;;;;;7.13;5.50;;;-3.80;99.90;;;;;;5053958;28;20302;-77
2024/01/14 09:32:23;;;;;;;11.55;9.05;;;-3.80;99.90;;;;;;5047486;28;20225;-78
2024/01/14 09:34:51;;;;;;;6.40;4.05;;;-3.80;99.90;;;;;;5048031;28;20202;-77
2024/01/14 09:37:18;;;;;;;7.90;4.50;;;-3.60;99.90;;;;;;5048660;28;20567;-75
2024/01/14 09:39:47;;;;;;;6.40;4.80;;;-3.50;99.90;;;;;;5050754;28;20200;-76
2024/01/14 09:42:20;;;;;;;8.48;4.60;;;-3.20;99.90;;;;;;5049440;28;20785;-76
2024/01/14 09:44:48;;;;;;;12.55;6.82;;;-2.90;99.90;;;;;;5044457;28;20198;-77
2024/01/14 09:47:17;;;;;;;8.52;5.78;;;-2.60;99.90;;;;;;5047978;28;20209;-76
2024/01/14 09:49:44;;;;;;;7.85;5.15;;;-1.90;99.90;;;;;;5043930;28;20198;-76
2024/01/14 09:52:13;;;;;;;15.27;7.30;;;-1.80;99.90;;;;;;5045399;28;20231;-76
2024/01/14 09:54:40;;;;;;;32.17;9.90;;;-2.00;99.90;;;;;;5051559;28;20201;-76
2024/01/14 09:57:12;;;;;;;13.50;6.47;;;-2.10;99.90;;;;;;5050573;28;20205;-77
2024/01/14 09:59:41;;;;;;;18.05;7.00;;;-1.70;99.90;;;;;;5055229;28;20205;-77
2024/01/14 10:02:09;;;;;;;10.32;6.93;;;-0.90;99.90;;;;;;5052197;28;20231;-76
2024/01/14 10:04:37;;;;;;;15.00;7.40;;;-0.40;99.90;;;;;;5050434;28;20201;-77
2024/01/14 10:07:03;;;;;;;20.05;9.10;;;-0.40;99.90;;;;;;5049835;28;20209;-77
2024/01/14 10:09:32;;;;;;;10.02;7.70;;;-1.10;99.90;;;;;;5051774;28;20674;-77
2024/01/14 10:11:58;;;;;;;9.25;6.90;;;-1.10;99.90;;;;;;5046602;28;20217;-76
2024/01/14 10:14:26;;;;;;;5.40;4.30;;;-1.50;99.90;;;;;;5048275;28;20216;-76
2024/01/14 10:16:55;;;;;;;12.52;5.07;;;-1.90;99.90;;;;;;5047970;28;20851;-77
2024/01/14 10:19:22;;;;;;;7.25;5.68;;;-1.90;99.90;;;;;;5031655;28;20205;-77
2024/01/14 10:21:49;;;;;;;24.80;10.40;;;-1.20;99.90;;;;;;5051430;28;20221;-77
2024/01/14 10:24:16;;;;;;;13.35;8.15;;;0.70;99.90;;;;;;5050313;28;20205;-76
2024/01/14 10:26:45;;;;;;;14.23;8.15;;;3.00;99.90;;;;;;5050883;28;20229;-76
2024/01/14 10:29:11;;;;;;;16.88;6.72;;;4.30;99.90;;;;;;5050285;28;20242;-76
2024/01/14 10:31:38;;;;;;;15.38;8.25;;;4.60;99.90;;;;;;5050653;28;20232;-76
2024/01/14 10:34:05;;;;;;;12.82;7.45;;;4.70;99.90;;;;;;5046189;28;20221;-76
2024/01/14 10:36:33;;;;;;;16.92;9.70;;;4.80;99.90;;;;;;5047070;28;20214;-76
2024/01/14 10:39:01;;;;;;;16.48;10.00;;;5.90;99.90;;;;;;5054748;28;20618;-75
2024/01/14 10:41:28;;;;;;;19.60;9.43;;;7.60;99.10;;;;;;5038480;28;20233;-75
2024/01/14 10:43:56;;;;;;;18.10;7.80;;;9.10;97.20;;;;;;5046303;28;20205;-75
2024/01/14 10:46:24;;;;;;;15.55;9.38;;;10.10;93.50;;;;;;5049258;28;20237;-75
2024/01/14 10:48:57;;;;;;;18.55;9.20;;;10.60;93.30;;;;;;5048512;28;20228;-75
2024/01/14 10:51:26;;;;;;;22.92;10.50;;;11.30;91.70;;;;;;5048089;28;20223;-75
2024/01/14 10:54:02;;;;;;;16.52;9.02;;;10.90;91.20;;;;;;5049886;28;20229;-76
2024/01/14 10:56:32;;;;;;;15.95;9.40;;;11.80;91.00;;;;;;5050123;28;20278;-76
2024/01/14 10:59:01;;;;;;;17.00;8.52;;;12.40;89.30;;;;;;5050592;28;20213;-75
2024/01/14 11:01:32;;;;;;;17.27;9.27;;;13.50;88.00;;;;;;5049883;28;20225;-76
2024/01/14 11:04:01;;;;;;;16.00;9.25;;;14.90;85.00;;;;;;5050666;28;20287;-75
2024/01/14 11:06:29;;;;;;;16.85;9.05;;;14.60;81.80;;;;;;5045956;28;20213;-75
2024/01/14 11:08:55;;;;;;;19.63;9.75;;;13.70;82.80;;;;;;5050506;28;20226;-75
2024/01/14 11:11:28;;;;;;;15.77;10.43;;;13.60;81.10;;;;;;5050089;28;20242;-76
2024/01/14 11:14:04;;;;;;;18.80;10.32;;;12.70;82.70;;;;;;5050474;28;20734;-77
2024/01/14 11:16:42;;;;;;;23.27;10.45;;;13.60;83.50;;;;;;5050668;28;20214;-75
2024/01/14 11:19:16;;;;;;;21.60;9.18;;;13.40;82.80;;;;;;5047357;28;20206;-75
2024/01/14 11:21:54;;;;;;;16.88;9.30;;;13.80;82.10;;;;;;5050621;28;20291;-75
2024/01/14 11:24:24;;;;;;;12.02;8.05;;;14.80;81.20;;;;;;5050290;28;20211;-77
2024/01/14 11:26:51;;;;;;;13.65;9.20;;;15.20;78.50;;;;;;5050512;28;20206;-77
2024/01/14 11:29:31;;;;;;;12.50;8.32;;;15.40;78.90;;;;;;5050204;28;20204;-77
2024/01/14 11:32:10;;;;;;;13.82;8.55;;;15.20;78.20;;;;;;5050609;28;20221;-77
2024/01/14 11:34:57;;;;;;;16.33;9.68;;;15.00;77.50;;;;;;5046886;28;20592;-77
2024/01/14 11:37:54;;;;;;;16.88;9.02;;;15.10;77.70;;;;;;5049826;28;20202;-77
2024/01/14 11:40:27;;;;;;;17.67;9.68;;;14.00;78.60;;;;;;5049187;28;20202;-77
2024/01/14 11:43:02;;;;;;;20.33;11.15;;;12.80;80.40;;;;;;5054818;28;20725;-77
2024/01/14 11:45:39;;;;;;;17.38;9.55;;;11.60;81.10;;;;;;5050836;28;20300;-77
2024/01/14 11:48:12;;;;;;;17.42;8.93;;;10.20;84.00;;;;;;5046911;28;20208;-77
2024/01/14 11:50:40;;;;;;;16.92;9.63;;;9.80;86.00;;;;;;5048320;28;20259;-77
2024/01/14 11:53:10;;;;;;;13.40;7.38;;;9.90;87.10;;;;;;5051392;28;20609;-76
2024/01/14 11:55:37;;;;;;;14.68;7.13;;;9.80;86.80;;;;;;5049268;28;20218;-76
2024/01/14 11:58:09;;;;;;;19.13;8.68;;;8.90;87.90;;;;;;5053486;28;20242;-74
2024/01/14 12:00:38;;;;;;;16.63;8.23;;;8.90;88.60;;;;;;5053713;28;20209;-74
2024/01/14 12:03:06;;;;;;;17.80;8.82;;;9.00;88.50;;;;;;5056017;28;20228;-74
2024/01/14 12:05:35;;;;;;;13.75;8.30;;;9.10;88.30;;;;;;5053814;28;20211;-75
2024/01/14 12:08:14;;;;;;;17.65;8.40;;;9.10;89.10;;;;;;5050251;28;20204;-75
2024/01/14 12:10:48;;;;;;;14.85;8.40;;;9.40;88.90;;;;;;5055289;28;20200;-77
2024/01/14 12:13:24;;;;;;;21.17;8.70;;;9.40;88.80;;;;;;5054693;28;20302;-77
2024/01/14 12:15:51;;;;;;;18.58;9.15;;;9.60;88.10;;;;;;5057886;28;20208;-77
2024/01/14 12:18:18;;;;;;;15.27;8.20;;;9.90;88.00;;;;;;5054535;28;20254;-77
2024/01/14 12:20:48;;;;;;;15.05;9.23;;;9.80;87.80;;;;;;5053803;28;20312;-77
2024/01/14 12:23:16;;;;;;;13.20;7.20;;;9.30;87.50;;;;;;5053760;28;20307;-76
2024/01/14 12:25:43;;;;;;;12.80;8.75;;;8.60;88.90;;;;;;5052965;28;20204;-74
2024/01/14 12:28:09;;;;;;;22.20;9.23;;;8.00;89.50;;;;;;5053258;28;20200;-77
2024/01/14 12:30:36;;;;;;;17.08;10.07;;;7.70;90.40;;;;;;5052792;28;20578;-74
2024/01/14 12:33:08;;;;;;;14.88;7.88;;;7.70;90.60;;;;;;5052973;28;20223;-75
2024/01/14 12:35:36;;;;;;;16.98;8.68;;;7.70;90.90;;;;;;5055286;28;20223;-75
2024/01/14 12:38:06;;;;;;;15.90;6.95;;;7.60;91.00;;;;;;5048367;28;20197;-75
2024/01/14 12:40:33;;;;;;;20.35;7.15;;;7.30;91.30;;;;;;5060286;28;20205;-75
2024/01/14 12:43:01;;;;;;;17.60;8.38;;;7.10;91.60;;;;;;5052511;28;20222;-74